Time;durP1;ratioP1;P1;durP2;ratioP2;P2;SDS_P1;SDS_P2;PMS_P1;PMS_P2;Temp;Humidity;BMP_temperature;BMP_pressure;BME280_temperature;BME280_humidity;BME280_pressure;Samples;Min_cycle;Max_cycle;Signal;HPM_P1;HPM_P2
2023/01/14 00:01:55;;;;;;;5.68;3.67;;;7.80;99.90;;;;;;10533952;28;20209;-81
2023/01/14 00:06:57;;;;;;;6.00;3.80;;;7.70;99.90;;;;;;10510923;28;20204;-83
2023/01/14 00:11:59;;;;;;;8.13;4.63;;;7.80;99.90;;;;;;10537794;28;20597;-82
2023/01/14 00:17:03;;;;;;;5.47;3.95;;;7.80;99.90;;;;;;10538269;28;20546;-83
2023/01/14 00:22:05;;;;;;;5.50;3.47;;;7.80;99.90;;;;;;10518965;28;20303;-83
2023/01/14 00:27:07;;;;;;;7.20;4.03;;;8.00;99.90;;;;;;10522381;28;20611;-82
2023/01/14 00:32:11;;;;;;;4.90;3.40;;;7.90;99.90;;;;;;10527674;28;20362;-83
2023/01/14 00:37:13;;;;;;;12.70;7.70;;;7.90;99.90;;;;;;10504918;28;20758;-82
2023/01/14 00:42:15;;;;;;;5.73;3.50;;;7.80;99.90;;;;;;10493189;28;20295;-82
2023/01/14 00:47:18;;;;;;;5.57;2.93;;;7.70;99.90;;;;;;10503741;28;20655;-84
2023/01/14 00:52:20;;;;;;;9.90;4.10;;;7.60;99.90;;;;;;10516068;28;20224;-83
2023/01/14 00:57:22;;;;;;;5.10;3.77;;;7.40;99.90;;;;;;10522073;28;20192;-83
2023/01/14 01:02:26;;;;;;;8.30;3.40;;;7.20;99.90;;;;;;10522339;28;20216;-83
2023/01/14 01:07:28;;;;;;;8.13;4.00;;;7.00;99.90;;;;;;10530413;28;20215;-83
2023/01/14 01:12:30;;;;;;;5.00;3.20;;;7.00;99.90;;;;;;10538130;28;20224;-83
2023/01/14 01:17:33;;;;;;;3.50;2.93;;;7.00;99.90;;;;;;10535316;28;20200;-83
2023/01/14 01:22:36;;;;;;;4.47;3.33;;;7.00;99.90;;;;;;10504029;28;20196;-84
2023/01/14 01:27:38;;;;;;;5.73;2.70;;;7.20;99.90;;;;;;10519087;28;20253;-82
2023/01/14 01:32:41;;;;;;;4.77;3.20;;;7.20;99.90;;;;;;10527709;28;20686;-81
2023/01/14 01:37:43;;;;;;;12.53;5.27;;;7.00;99.90;;;;;;10500219;28;20196;-81
2023/01/14 01:42:55;;;;;;;2.78;2.58;;;6.90;99.90;;;;;;10503379;28;20188;-81
2023/01/14 01:48:04;;;;;;;14.47;5.80;;;6.90;99.90;;;;;;10520200;28;20223;-83
2023/01/14 01:53:08;;;;;;;6.47;4.43;;;6.90;99.90;;;;;;10504854;28;20628;-84
2023/01/14 01:58:12;;;;;;;15.07;5.30;;;6.90;99.90;;;;;;10521934;28;20338;-83
2023/01/14 02:03:20;;;;;;;4.60;3.20;;;6.80;99.90;;;;;;10532421;28;20189;-83
2023/01/14 02:08:22;;;;;;;5.75;3.53;;;6.80;99.90;;;;;;10516329;28;20254;-84
2023/01/14 02:13:44;;;;;;;11.27;4.13;;;6.90;99.90;;;;;;10502867;28;20215;-84
2023/01/14 02:19:04;;;;;;;5.13;3.97;;;7.00;99.90;;;;;;10517578;28;20244;-83
2023/01/14 02:24:39;;;;;;;6.77;3.60;;;7.10;99.90;;;;;;10507946;28;20670;-82
2023/01/14 02:29:58;;;;;;;6.00;3.40;;;7.20;99.90;;;;;;10510414;28;20211;-82
2023/01/14 02:35:17;;;;;;;3.30;2.90;;;7.20;99.90;;;;;;10517996;28;20712;-84
2023/01/14 02:40:27;;;;;;;6.03;3.80;;;7.30;99.90;;;;;;10527526;28;20279;-83
2023/01/14 02:45:36;;;;;;;6.82;2.92;;;7.30;99.90;;;;;;10560875;28;20263;-82
2023/01/14 02:50:39;;;;;;;7.30;3.17;;;7.40;99.90;;;;;;10566781;28;20216;-82
2023/01/14 02:55:42;;;;;;;5.45;3.10;;;7.30;99.90;;;;;;10544244;28;20208;-83
2023/01/14 03:01:10;;;;;;;6.20;3.60;;;7.40;99.90;;;;;;10559358;28;20215;-82
2023/01/14 03:06:31;;;;;;;5.50;3.00;;;7.40;99.90;;;;;;10533272;28;20254;-83
2023/01/14 03:11:43;;;;;;;5.70;3.57;;;7.20;99.90;;;;;;10532175;28;20320;-83
2023/01/14 03:16:51;;;;;;;4.40;3.30;;;7.10;99.90;;;;;;10505729;28;20200;-83
2023/01/14 03:21:56;;;;;;;7.07;3.17;;;7.10;99.90;;;;;;10537679;28;20208;-82
2023/01/14 03:27:03;;;;;;;4.97;3.03;;;7.10;99.90;;;;;;10537427;28;20196;-83
2023/01/14 03:32:11;;;;;;;8.13;3.33;;;7.20;99.90;;;;;;10509682;28;20787;-82
2023/01/14 03:37:16;;;;;;;3.73;3.00;;;7.20;99.90;;;;;;10519805;28;20197;-83
2023/01/14 03:42:23;;;;;;;8.00;3.00;;;7.20;99.90;;;;;;10543910;28;20684;-83
2023/01/14 03:47:28;;;;;;;7.10;2.93;;;7.20;99.90;;;;;;10502867;28;20196;-83
2023/01/14 03:52:57;;;;;;;3.53;2.70;;;7.20;99.90;;;;;;10544591;28;20208;-83
2023/01/14 03:58:06;;;;;;;2.90;2.70;;;7.20;99.90;;;;;;10537862;28;20618;-83
2023/01/14 04:03:12;;;;;;;5.17;3.40;;;7.20;99.90;;;;;;10497451;28;20569;-82
2023/01/14 04:08:14;;;;;;;6.32;3.42;;;7.20;99.90;;;;;;10534179;28;20227;-82
2023/01/14 04:18:39;;;;;;;3.50;2.90;;;7.40;99.90;;;;;;10533191;28;20251;-83
2023/01/14 04:23:41;;;;;;;8.90;3.30;;;7.40;99.90;;;;;;10495668;28;20192;-83
2023/01/14 04:28:43;;;;;;;2.90;2.50;;;7.40;99.90;;;;;;10511038;28;20227;-81
2023/01/14 04:33:46;;;;;;;3.47;2.80;;;7.40;99.90;;;;;;10510531;28;20220;-82
2023/01/14 04:38:49;;;;;;;3.60;3.30;;;7.40;99.90;;;;;;10512903;28;20209;-83
2023/01/14 04:43:51;;;;;;;3.22;2.88;;;7.40;99.90;;;;;;10530228;28;20227;-83
2023/01/14 04:48:54;;;;;;;6.40;3.47;;;7.60;99.90;;;;;;10514224;28;20212;-83
2023/01/14 04:53:56;;;;;;;4.32;3.17;;;7.70;99.90;;;;;;10528232;28;20223;-83
2023/01/14 04:59:01;;;;;;;6.05;2.47;;;7.80;99.90;;;;;;10529298;28;20216;-83
2023/01/14 05:04:04;;;;;;;4.50;3.00;;;8.00;99.90;;;;;;10497159;28;20192;-84
2023/01/14 05:09:06;;;;;;;4.87;2.77;;;8.00;99.90;;;;;;10555826;28;20234;-83
2023/01/14 05:14:08;;;;;;;5.00;2.90;;;8.00;99.90;;;;;;10514207;28;20291;-83
2023/01/14 05:19:12;;;;;;;12.73;3.67;;;7.90;99.90;;;;;;10543387;28;20307;-83
2023/01/14 05:24:14;;;;;;;4.72;2.88;;;7.80;99.90;;;;;;10516772;28;20568;-83
2023/01/14 05:29:16;;;;;;;6.10;3.10;;;7.90;99.90;;;;;;10542521;28;20269;-84
2023/01/14 05:34:19;;;;;;;5.53;2.90;;;7.90;99.90;;;;;;10508535;28;20243;-83
2023/01/14 05:39:22;;;;;;;3.25;2.20;;;7.80;99.90;;;;;;10523893;28;20212;-83
2023/01/14 05:49:41;;;;;;;2.73;2.27;;;7.80;99.90;;;;;;10473929;28;20691;-83
2023/01/14 05:54:44;;;;;;;5.23;2.90;;;7.70;99.90;;;;;;10522968;28;20196;-84
2023/01/14 05:59:46;;;;;;;3.37;2.70;;;7.80;99.90;;;;;;10548051;28;20461;-83
2023/01/14 06:10:09;;;;;;;4.80;3.07;;;7.60;99.90;;;;;;10520922;28;20211;-81
2023/01/14 06:15:11;;;;;;;5.18;2.75;;;7.40;99.90;;;;;;10498197;28;20196;-83
2023/01/14 06:20:15;;;;;;;3.80;2.87;;;7.40;99.90;;;;;;10541841;28;20212;-83
2023/01/14 06:25:17;;;;;;;6.20;2.77;;;7.30;99.90;;;;;;10523921;28;20255;-84
2023/01/14 06:30:20;;;;;;;5.50;3.20;;;7.20;99.90;;;;;;10537896;28;20212;-84
2023/01/14 06:35:24;;;;;;;5.40;2.60;;;7.20;99.90;;;;;;10516521;28;20207;-82
2023/01/14 06:40:26;;;;;;;6.37;3.07;;;7.20;99.90;;;;;;10539033;28;20220;-82
2023/01/14 06:45:28;;;;;;;3.63;2.73;;;7.20;99.90;;;;;;10521254;28;20184;-84
2023/01/14 06:50:31;;;;;;;8.38;3.10;;;7.20;99.90;;;;;;10508795;28;20877;-83
2023/01/14 06:55:33;;;;;;;8.13;3.70;;;7.30;99.90;;;;;;10546219;28;20215;-83
2023/01/14 07:00:35;;;;;;;4.93;3.00;;;7.40;99.90;;;;;;10529719;28;20276;-83
2023/01/14 07:05:39;;;;;;;9.70;5.83;;;7.30;99.90;;;;;;10535294;28;20246;-83
2023/01/14 07:10:42;;;;;;;8.03;4.20;;;7.40;99.90;;;;;;10526692;28;20562;-82
2023/01/14 07:15:44;;;;;;;5.90;3.97;;;7.50;99.90;;;;;;10513401;28;20203;-83
2023/01/14 07:20:48;;;;;;;6.50;3.20;;;7.60;99.90;;;;;;10503661;28;20258;-83
2023/01/14 07:25:55;;;;;;;8.63;3.17;;;7.70;99.90;;;;;;10543003;28;20207;-83
2023/01/14 07:30:57;;;;;;;4.10;3.20;;;7.80;99.90;;;;;;10547427;28;20585;-83
2023/01/14 07:36:01;;;;;;;4.70;3.00;;;7.80;99.90;;;;;;10536001;28;20253;-83
2023/01/14 07:41:08;;;;;;;6.65;3.47;;;7.90;99.90;;;;;;10518378;28;20209;-83
2023/01/14 07:46:10;;;;;;;6.13;3.27;;;8.10;99.90;;;;;;10522159;28;20220;-83
2023/01/14 07:51:20;;;;;;;9.10;3.60;;;8.10;99.90;;;;;;10557838;28;20223;-81
2023/01/14 07:56:22;;;;;;;8.00;3.43;;;8.00;99.90;;;;;;10535149;28;20205;-83
2023/01/14 08:01:24;;;;;;;5.80;3.10;;;7.80;99.90;;;;;;10524310;28;20219;-83
2023/01/14 08:06:28;;;;;;;6.38;3.10;;;7.90;99.90;;;;;;10526521;28;20192;-82
2023/01/14 08:11:30;;;;;;;7.47;3.40;;;8.00;99.90;;;;;;10536933;28;20220;-82
2023/01/14 08:16:32;;;;;;;8.10;3.20;;;8.10;99.90;;;;;;10534137;28;20208;-81
2023/01/14 08:21:36;;;;;;;5.33;3.30;;;8.10;99.90;;;;;;10536857;28;20291;-83
2023/01/14 08:26:38;;;;;;;6.65;3.15;;;8.20;99.90;;;;;;10557925;28;20200;-83
2023/01/14 08:31:41;;;;;;;5.40;3.20;;;8.50;99.90;;;;;;10543388;28;20220;-82
2023/01/14 08:36:44;;;;;;;10.47;3.87;;;8.70;99.90;;;;;;10552728;28;20286;-83
2023/01/14 08:41:46;;;;;;;4.90;2.30;;;8.80;99.90;;;;;;10549097;28;20623;-83
2023/01/14 08:46:48;;;;;;;5.93;3.17;;;8.90;99.90;;;;;;10541702;28;20203;-83
2023/01/14 08:51:54;;;;;;;4.13;2.77;;;9.00;99.90;;;;;;10534930;28;20227;-83
2023/01/14 08:56:57;;;;;;;4.00;3.10;;;9.00;99.90;;;;;;10564027;28;20203;-83
2023/01/14 09:01:59;;;;;;;6.50;2.93;;;9.10;99.90;;;;;;10565858;28;20454;-83
2023/01/14 09:17:44;;;;;;;5.03;2.83;;;9.40;99.90;;;;;;10531568;28;20248;-83
2023/01/14 09:22:47;;;;;;;4.87;2.07;;;9.60;99.90;;;;;;10542579;28;20192;-83
2023/01/14 09:27:49;;;;;;;4.20;2.78;;;9.70;99.90;;;;;;10545622;28;20227;-83
2023/01/14 09:32:52;;;;;;;3.57;2.60;;;9.90;99.90;;;;;;10563784;28;20249;-83
2023/01/14 09:37:57;;;;;;;6.50;2.40;;;9.90;99.90;;;;;;10558942;28;20212;-83
2023/01/14 09:42:59;;;;;;;6.00;2.87;;;9.80;99.90;;;;;;10549697;28;20257;-80
2023/01/14 09:48:05;;;;;;;8.27;2.80;;;9.80;99.90;;;;;;10497734;28;20292;-80
2023/01/14 09:53:28;;;;;;;3.63;2.42;;;10.00;99.90;;;;;;10507852;28;20570;-80
2023/01/14 09:58:36;;;;;;;4.30;2.87;;;10.30;99.90;;;;;;10512758;28;20311;-82
2023/01/14 10:03:44;;;;;;;8.33;3.73;;;10.30;99.90;;;;;;10542621;28;20188;-80
2023/01/14 10:08:51;;;;;;;3.33;2.40;;;10.30;99.90;;;;;;10538102;28;20310;-78
2023/01/14 10:14:03;;;;;;;3.53;2.57;;;10.30;99.90;;;;;;10537081;28;20226;-81
2023/01/14 10:19:13;;;;;;;8.00;2.97;;;10.30;99.90;;;;;;10535529;28;20212;-82
2023/01/14 10:24:17;;;;;;;5.73;2.70;;;10.40;99.90;;;;;;10536639;28;20191;-81
2023/01/14 10:29:22;;;;;;;5.00;3.50;;;10.50;99.90;;;;;;10509183;28;20219;-80
2023/01/14 10:34:29;;;;;;;4.37;2.40;;;10.70;99.90;;;;;;10535737;28;20955;-81
2023/01/14 10:39:32;;;;;;;4.10;2.43;;;10.80;99.90;;;;;;10534177;28;20215;-79
2023/01/14 10:44:37;;;;;;;4.20;2.77;;;10.80;99.90;;;;;;10510123;28;20220;-80
2023/01/14 10:49:46;;;;;;;8.30;4.00;;;10.70;99.90;;;;;;10532994;28;20223;-80
2023/01/14 10:54:57;;;;;;;81.07;54.10;;;10.80;99.90;;;;;;10520776;28;20250;-83
2023/01/14 11:00:00;;;;;;;3.00;2.70;;;10.80;99.90;;;;;;10530531;28;20220;-84
2023/01/14 11:05:04;;;;;;;2.83;2.43;;;10.80;99.90;;;;;;10531006;28;20329;-82
2023/01/14 11:10:19;;;;;;;2.53;2.33;;;10.80;99.90;;;;;;10522875;28;20216;-84
2023/01/14 11:15:35;;;;;;;5.17;2.27;;;11.00;99.90;;;;;;10496842;28;20450;-84
2023/01/14 11:20:37;;;;;;;2.63;2.43;;;11.20;99.90;;;;;;10548398;28;20528;-80
2023/01/14 11:25:41;;;;;;;2.30;2.10;;;11.20;99.90;;;;;;10504613;28;20200;-82
2023/01/14 11:30:46;;;;;;;2.50;2.30;;;11.10;99.90;;;;;;10539301;28;20221;-82
2023/01/14 11:35:51;;;;;;;2.80;2.00;;;11.00;99.90;;;;;;10547161;28;20220;-82
2023/01/14 11:46:16;;;;;;;2.50;2.30;;;11.20;99.90;;;;;;10527693;28;20276;-82
2023/01/14 11:51:20;;;;;;;2.70;2.50;;;11.20;99.90;;;;;;10514955;28;20246;-82
2023/01/14 11:56:31;;;;;;;2.10;1.90;;;11.20;99.90;;;;;;10511228;28;20299;-82
2023/01/14 12:01:38;;;;;;;2.30;2.10;;;11.30;99.90;;;;;;10505607;28;20213;-82
2023/01/14 12:06:46;;;;;;;2.70;1.67;;;11.20;99.90;;;;;;10507500;28;20201;-80
2023/01/14 12:11:57;;;;;;;5.40;2.47;;;11.30;99.90;;;;;;10509409;28;20300;-79
2023/01/14 12:17:03;;;;;;;3.30;2.70;;;11.30;99.90;;;;;;10502812;28;20227;-81
2023/01/14 12:22:15;;;;;;;2.78;2.13;;;11.30;99.90;;;;;;10502277;28;20216;-81
2023/01/14 12:27:41;;;;;;;2.40;1.90;;;11.40;99.90;;;;;;10521815;28;20284;-81
2023/01/14 12:32:51;;;;;;;2.10;2.00;;;11.50;99.90;;;;;;10522425;28;20212;-81
2023/01/14 12:37:57;;;;;;;2.50;2.30;;;11.40;99.90;;;;;;10503271;28;20247;-80
2023/01/14 12:48:25;;;;;;;2.80;2.33;;;11.30;99.90;;;;;;10520115;28;20223;-81
2023/01/14 12:53:31;;;;;;;1.73;1.63;;;11.30;99.90;;;;;;10532174;28;20220;-80
2023/01/14 12:58:40;;;;;;;3.20;2.60;;;11.30;99.90;;;;;;10529081;28;20239;-80
2023/01/14 13:03:52;;;;;;;3.80;2.00;;;11.30;99.90;;;;;;10508485;28;20279;-81
2023/01/14 13:08:55;;;;;;;4.20;2.50;;;11.20;99.90;;;;;;10523741;28;20229;-80
2023/01/14 13:14:02;;;;;;;6.18;2.53;;;11.20;99.90;;;;;;10523008;28;20242;-81
2023/01/14 13:19:26;;;;;;;2.83;2.33;;;11.40;99.90;;;;;;10500283;28;20261;-81
2023/01/14 13:24:35;;;;;;;2.73;2.30;;;11.50;99.90;;;;;;10533732;28;20649;-81
2023/01/14 13:29:38;;;;;;;2.65;2.45;;;11.40;99.90;;;;;;10512149;28;20224;-81
2023/01/14 13:34:40;;;;;;;3.47;1.90;;;11.50;99.90;;;;;;10508153;28;20239;-82
2023/01/14 13:39:48;;;;;;;2.23;1.80;;;11.60;99.40;;;;;;10525051;28;20212;-81
2023/01/14 13:44:54;;;;;;;3.10;2.43;;;11.50;99.40;;;;;;10510897;28;20192;-84
2023/01/14 13:50:01;;;;;;;2.40;2.20;;;11.60;99.10;;;;;;10528759;28;20466;-83
2023/01/14 13:55:07;;;;;;;2.43;2.23;;;11.80;98.90;;;;;;10540053;28;20639;-82
2023/01/14 14:00:29;;;;;;;3.47;2.53;;;11.70;99.30;;;;;;10521903;28;20707;-81
2023/01/14 14:05:32;;;;;;;2.93;2.43;;;11.60;98.50;;;;;;10504984;28;20629;-82
2023/01/14 14:10:36;;;;;;;2.20;1.80;;;11.50;98.60;;;;;;10524540;28;20215;-83
2023/01/14 14:15:45;;;;;;;2.80;2.10;;;11.50;98.00;;;;;;10541589;28;20226;-84
2023/01/14 14:20:47;;;;;;;4.73;3.00;;;11.40;98.40;;;;;;10535093;28;20222;-82
2023/01/14 14:25:50;;;;;;;4.97;2.33;;;11.50;98.40;;;;;;10536065;28;20184;-82
2023/01/14 14:30:58;;;;;;;3.43;2.20;;;11.50;97.90;;;;;;10550207;28;20220;-82
2023/01/14 14:36:02;;;;;;;3.30;1.97;;;11.50;97.90;;;;;;10533678;28;20295;-84
2023/01/14 14:41:15;;;;;;;3.30;2.57;;;11.60;97.90;;;;;;10526079;28;20685;-82
2023/01/14 14:46:23;;;;;;;2.40;1.90;;;11.60;98.40;;;;;;10504936;28;20276;-82
2023/01/14 14:51:27;;;;;;;2.50;2.13;;;11.50;99.00;;;;;;10525880;28;20577;-81
2023/01/14 14:56:32;;;;;;;3.85;2.00;;;11.50;97.80;;;;;;10535430;28;20237;-82
2023/01/14 15:01:37;;;;;;;2.90;2.60;;;11.50;98.80;;;;;;10506110;28;20750;-82
2023/01/14 15:06:40;;;;;;;3.83;3.33;;;11.40;98.50;;;;;;10499279;28;20195;-83
2023/01/14 15:11:44;;;;;;;2.45;2.25;;;11.30;98.00;;;;;;10514894;28;20243;-81
2023/01/14 15:16:52;;;;;;;2.70;2.50;;;11.40;97.70;;;;;;10524157;28;20219;-84
2023/01/14 15:22:00;;;;;;;14.83;12.73;;;11.70;96.30;;;;;;10503686;28;20213;-81
2023/01/14 15:27:04;;;;;;;2.20;2.10;;;11.70;96.20;;;;;;10539387;28;20304;-80
2023/01/14 15:32:38;;;;;;;2.33;2.13;;;11.80;95.10;;;;;;10522259;28;20209;-80
2023/01/14 15:37:41;;;;;;;2.37;2.17;;;11.80;94.20;;;;;;10526019;28;20682;-84
2023/01/14 15:42:44;;;;;;;1.87;1.77;;;11.70;93.80;;;;;;10562796;28;20200;-83
2023/01/14 15:47:54;;;;;;;2.30;1.67;;;11.60;95.90;;;;;;10532583;28;20649;-82
2023/01/14 15:53:15;;;;;;;2.10;2.00;;;11.60;95.90;;;;;;10531015;28;20216;-82
2023/01/14 15:58:29;;;;;;;1.80;1.70;;;11.20;97.50;;;;;;10534767;28;20541;-82
2023/01/14 16:03:42;;;;;;;1.73;1.63;;;10.80;97.70;;;;;;10531054;28;20219;-82
2023/01/14 16:08:45;;;;;;;1.90;1.75;;;10.60;98.10;;;;;;10524357;28;20214;-83
2023/01/14 16:13:48;;;;;;;4.20;1.70;;;10.70;96.60;;;;;;10515978;28;20219;-82
2023/01/14 16:18:53;;;;;;;1.87;1.30;;;10.70;97.30;;;;;;10536320;28;20958;-82
2023/01/14 16:23:55;;;;;;;3.03;2.35;;;10.80;96.30;;;;;;10554785;28;20195;-83
2023/01/14 16:28:57;;;;;;;2.87;1.90;;;10.90;98.10;;;;;;10534086;28;20204;-83
2023/01/14 16:34:00;;;;;;;2.37;2.27;;;11.00;97.10;;;;;;10519083;28;20208;-83
2023/01/14 16:39:04;;;;;;;1.27;1.17;;;11.00;96.40;;;;;;10520738;28;20549;-83
2023/01/14 16:44:06;;;;;;;2.10;2.00;;;11.00;96.80;;;;;;10559534;28;20551;-82
2023/01/14 16:49:10;;;;;;;4.00;2.20;;;11.00;96.70;;;;;;10560589;28;20227;-82
2023/01/14 16:54:16;;;;;;;2.53;2.33;;;11.00;96.70;;;;;;10525544;28;20239;-82
2023/01/14 16:59:18;;;;;;;3.78;3.47;;;11.00;97.10;;;;;;10536222;28;20219;-83
2023/01/14 17:04:22;;;;;;;2.40;1.67;;;11.20;96.60;;;;;;10561862;28;20212;-81
2023/01/14 17:09:24;;;;;;;2.33;2.17;;;11.20;96.10;;;;;;10545194;28;20529;-82
2023/01/14 17:14:29;;;;;;;2.10;2.00;;;11.20;95.80;;;;;;10532495;28;20227;-82
2023/01/14 17:19:33;;;;;;;2.23;2.03;;;11.20;96.60;;;;;;10553131;28;20222;-82
2023/01/14 17:24:35;;;;;;;3.30;3.03;;;11.20;96.20;;;;;;10546141;28;20202;-83
2023/01/14 17:29:37;;;;;;;3.00;2.60;;;11.10;96.50;;;;;;10524340;28;20299;-82
2023/01/14 17:34:41;;;;;;;2.40;2.20;;;11.10;96.70;;;;;;10530779;28;20207;-82
2023/01/14 17:39:45;;;;;;;5.78;3.90;;;11.10;97.40;;;;;;10542495;28;20216;-84
2023/01/14 17:44:48;;;;;;;1.95;1.85;;;11.30;97.10;;;;;;10529234;28;20188;-83
2023/01/14 17:49:52;;;;;;;2.50;2.30;;;11.50;97.40;;;;;;10508404;28;20315;-82
2023/01/14 17:54:54;;;;;;;6.00;3.53;;;11.50;97.50;;;;;;10529912;28;20242;-84
2023/01/14 17:59:56;;;;;;;2.47;2.10;;;11.30;98.10;;;;;;10527482;28;20307;-82
2023/01/14 18:05:02;;;;;;;2.50;2.30;;;11.30;98.90;;;;;;10534661;28;20192;-82
2023/01/14 18:10:05;;;;;;;4.20;2.83;;;11.40;99.70;;;;;;10522644;28;20215;-82
2023/01/14 18:15:09;;;;;;;3.60;2.78;;;11.40;99.50;;;;;;10555465;28;20215;-82
2023/01/14 18:20:13;;;;;;;2.60;2.40;;;11.40;99.90;;;;;;10532258;28;20217;-82
2023/01/14 18:25:16;;;;;;;2.90;2.70;;;11.50;99.90;;;;;;10528854;28;20264;-82
2023/01/14 18:30:20;;;;;;;2.10;2.00;;;11.40;99.90;;;;;;10521450;28;20695;-82
2023/01/14 18:35:25;;;;;;;3.60;2.77;;;11.30;99.90;;;;;;10524726;28;20220;-82
2023/01/14 18:40:27;;;;;;;2.57;2.47;;;11.40;99.90;;;;;;10523869;28;20224;-82
2023/01/14 18:45:30;;;;;;;2.47;2.28;;;11.40;99.90;;;;;;10509684;28;20476;-83
2023/01/14 18:50:34;;;;;;;2.50;2.40;;;11.60;99.90;;;;;;10519025;28;20247;-83
2023/01/14 18:55:36;;;;;;;2.47;2.30;;;11.50;99.90;;;;;;10511047;28;20578;-83
2023/01/14 19:00:38;;;;;;;3.17;2.87;;;11.30;99.90;;;;;;10537665;28;20226;-82
2023/01/14 19:05:41;;;;;;;2.30;2.10;;;11.30;99.90;;;;;;10505124;28;20185;-82
2023/01/14 19:10:43;;;;;;;3.13;2.90;;;11.30;99.90;;;;;;10512166;28;20269;-83
2023/01/14 19:15:45;;;;;;;3.23;2.93;;;11.40;99.90;;;;;;10521644;28;20298;-83
2023/01/14 19:20:57;;;;;;;2.50;2.40;;;11.40;99.90;;;;;;10529175;28;20550;-82
2023/01/14 19:26:00;;;;;;;5.87;5.30;;;11.50;99.90;;;;;;10505994;28;20205;-83
2023/01/14 19:31:03;;;;;;;2.40;2.30;;;11.40;99.90;;;;;;10507918;28;20216;-82
2023/01/14 19:36:08;;;;;;;2.30;2.20;;;11.40;99.90;;;;;;10520707;28;20278;-84
2023/01/14 19:41:13;;;;;;;3.00;2.80;;;11.40;99.90;;;;;;10526325;28;20242;-83
2023/01/14 19:46:17;;;;;;;3.10;2.90;;;11.40;99.90;;;;;;10517617;28;20223;-82
2023/01/14 19:51:23;;;;;;;2.27;2.17;;;11.40;99.90;;;;;;10539447;28;20784;-81
2023/01/14 19:56:27;;;;;;;2.28;2.15;;;11.50;99.90;;;;;;10517730;28;20224;-81
2023/01/14 20:01:31;;;;;;;2.13;2.03;;;11.70;99.90;;;;;;10529225;28;20208;-81
2023/01/14 20:06:37;;;;;;;2.33;2.23;;;11.70;99.90;;;;;;10537365;28;20250;-81
2023/01/14 20:11:41;;;;;;;1.67;1.50;;;11.60;99.90;;;;;;10526175;28;20212;-83
2023/01/14 20:16:43;;;;;;;2.43;2.23;;;11.70;99.90;;;;;;10531598;28;20216;-84
2023/01/14 20:21:46;;;;;;;2.57;2.43;;;11.70;99.90;;;;;;10522039;28;20307;-84
2023/01/14 20:26:48;;;;;;;2.10;2.00;;;11.70;99.90;;;;;;10526232;28;20204;-83
2023/01/14 20:31:50;;;;;;;2.50;2.30;;;11.80;99.90;;;;;;10524183;28;20216;-82
2023/01/14 20:36:55;;;;;;;2.17;2.07;;;11.80;99.90;;;;;;10545267;28;20222;-82
2023/01/14 20:47:17;;;;;;;2.10;2.00;;;12.10;99.90;;;;;;10543536;28;20244;-82
2023/01/14 20:52:21;;;;;;;2.00;1.90;;;12.20;99.90;;;;;;10522718;28;20235;-82
2023/01/14 20:57:27;;;;;;;2.40;2.17;;;12.10;99.90;;;;;;10536155;28;20213;-82
2023/01/14 21:02:30;;;;;;;2.10;2.00;;;12.00;99.90;;;;;;10513516;28;20192;-83
2023/01/14 21:07:34;;;;;;;2.60;2.37;;;12.00;99.90;;;;;;10525972;28;20189;-84
2023/01/14 21:12:37;;;;;;;2.10;2.00;;;12.10;99.90;;;;;;10532115;28;20439;-84
2023/01/14 21:23:04;;;;;;;1.93;1.83;;;12.00;99.90;;;;;;10534783;28;20275;-83
2023/01/14 21:28:08;;;;;;;2.13;2.03;;;12.00;99.90;;;;;;10550370;28;20230;-82
2023/01/14 21:33:10;;;;;;;2.20;2.10;;;11.90;99.90;;;;;;10512437;28;20216;-83
2023/01/14 21:38:14;;;;;;;2.50;2.40;;;11.90;99.90;;;;;;10503550;28;20212;-83
2023/01/14 21:43:27;;;;;;;2.33;2.23;;;11.90;99.90;;;;;;10512924;28;20196;-81
2023/01/14 21:48:30;;;;;;;2.40;2.30;;;12.10;99.90;;;;;;10517533;28;20592;-82
2023/01/14 21:53:34;;;;;;;2.10;2.00;;;12.10;99.90;;;;;;10531060;28;20617;-81
2023/01/14 21:58:36;;;;;;;2.30;2.10;;;12.10;99.90;;;;;;10501805;28;20592;-82
2023/01/14 22:03:39;;;;;;;2.23;2.03;;;12.20;99.90;;;;;;10526504;28;20202;-82
2023/01/14 22:08:42;;;;;;;2.03;1.93;;;12.30;99.90;;;;;;10519029;28;20705;-82
2023/01/14 22:13:48;;;;;;;2.00;1.80;;;12.20;99.90;;;;;;10529861;28;20311;-81
2023/01/14 22:18:50;;;;;;;2.20;2.00;;;12.20;99.90;;;;;;10533029;28;20220;-82
2023/01/14 22:23:53;;;;;;;2.13;2.03;;;12.10;99.90;;;;;;10527212;28;20610;-81
2023/01/14 22:28:55;;;;;;;2.20;2.10;;;12.00;99.90;;;;;;10529135;28;20216;-81
2023/01/14 22:34:02;;;;;;;2.00;1.90;;;12.00;99.90;;;;;;10528499;28;20580;-81
2023/01/14 22:39:05;;;;;;;2.03;1.93;;;12.00;99.90;;;;;;10537252;28;20212;-81
2023/01/14 22:44:07;;;;;;;2.00;1.93;;;12.00;99.90;;;;;;10526483;28;20226;-82
2023/01/14 22:49:10;;;;;;;1.70;1.60;;;11.90;99.90;;;;;;10519132;28;20658;-82
2023/01/14 22:54:13;;;;;;;2.00;1.90;;;11.90;99.90;;;;;;10543939;28;20230;-82
2023/01/14 22:59:15;;;;;;;1.50;1.40;;;11.80;99.90;;;;;;10532115;28;20220;-82
2023/01/14 23:04:17;;;;;;;1.50;1.40;;;11.70;99.90;;;;;;10539333;28;20196;-82
2023/01/14 23:09:21;;;;;;;3.37;2.30;;;11.60;99.90;;;;;;10546116;28;20681;-82
2023/01/14 23:14:25;;;;;;;2.27;2.17;;;11.50;99.90;;;;;;10564802;28;20216;-83
2023/01/14 23:19:27;;;;;;;3.30;3.10;;;11.40;99.90;;;;;;10544809;28;20204;-81
2023/01/14 23:24:36;;;;;;;2.87;2.77;;;11.30;99.90;;;;;;10532400;28;20191;-82
2023/01/14 23:29:38;;;;;;;7.10;5.27;;;11.30;99.90;;;;;;10542592;28;20210;-81
2023/01/14 23:34:43;;;;;;;2.37;2.20;;;11.30;99.90;;;;;;10563091;28;20208;-82
2023/01/14 23:39:46;;;;;;;2.30;2.20;;;11.30;99.90;;;;;;10555910;28;20246;-82
2023/01/14 23:44:50;;;;;;;2.20;2.10;;;11.40;99.90;;;;;;10559215;28;20189;-81
2023/01/14 23:49:53;;;;;;;1.90;1.80;;;11.40;99.90;;;;;;10541649;28;20223;-82
2023/01/14 23:54:58;;;;;;;2.13;2.00;;;11.50;99.90;;;;;;10567486;28;20218;-82
